createdAt,value
2018-04-18T00:02:26.399Z,102296.66
2018-04-18T00:04:54.762Z,102294.50
2018-04-18T00:07:23.134Z,102301.42
2018-04-18T00:09:51.513Z,102297.98
2018-04-18T00:12:19.875Z,102299.27
2018-04-18T00:14:48.534Z,102299.28
2018-04-18T00:17:17.704Z,102307.45
2018-04-18T00:19:46.256Z,102310.48
2018-04-18T00:22:14.694Z,102307.45
2018-04-18T00:24:44.707Z,102312.63
2018-04-18T00:27:14.335Z,102308.75
2018-04-18T00:29:43.504Z,102314.74
2018-04-18T00:32:11.991Z,102312.56
2018-04-18T00:34:41.191Z,102312.98
2018-04-18T00:37:10.829Z,102313.84
2018-04-18T00:39:39.550Z,102312.11
2018-04-18T00:42:07.946Z,102315.11
2018-04-18T00:44:36.377Z,102314.21
2018-04-18T00:47:04.824Z,102311.16
2018-04-18T00:49:33.939Z,102321.91
2018-04-18T00:52:02.347Z,102320.23
2018-04-18T00:54:31.045Z,102314.22
2018-04-18T00:56:59.405Z,102317.23
2018-04-18T00:59:27.800Z,102317.66
2018-04-18T01:01:56.158Z,102314.64
2018-04-18T01:04:25.441Z,102312.92
2018-04-18T01:06:54.301Z,102314.22
2018-04-18T01:09:23.526Z,102315.09
2018-04-18T01:11:51.935Z,102320.30
2018-04-18T01:14:20.320Z,102315.97
2018-04-18T01:16:48.727Z,102317.27
2018-04-18T01:19:17.188Z,102314.69
2018-04-18T01:21:45.549Z,102321.62
2018-04-18T01:24:14.346Z,102319.86
2018-04-18T01:26:43.513Z,102314.20
2018-04-18T01:29:11.962Z,102318.14
2018-04-18T01:31:40.341Z,102322.89
2018-04-18T01:34:08.717Z,102319.47
2018-04-18T01:36:37.936Z,102324.70
2018-04-18T01:39:07.128Z,102322.13
2018-04-18T01:41:36.284Z,102322.13
2018-04-18T01:44:05.102Z,102318.69
2018-04-18T01:46:34.230Z,102326.88
2018-04-18T01:49:20.581Z,102330.28
2018-04-18T01:51:49.010Z,102330.67
2018-04-18T01:54:17.400Z,102330.20
2018-04-18T01:56:45.828Z,102333.19
2018-04-18T01:59:14.225Z,102341.76
2018-04-18T02:01:43.361Z,102333.51
2018-04-18T02:04:11.778Z,102338.23
2018-04-18T02:06:40.165Z,102343.42
2018-04-18T02:09:08.558Z,102341.27
2018-04-18T02:11:36.908Z,102346.44
2018-04-18T02:14:05.308Z,102341.27
2018-04-18T02:16:34.457Z,102350.68
2018-04-18T02:19:02.936Z,102352.36
2018-04-18T02:21:31.371Z,102355.87
2018-04-18T02:23:59.749Z,102362.34
2018-04-18T02:26:28.149Z,102363.63
2018-04-18T02:28:57.424Z,102369.66
2018-04-18T02:31:25.801Z,102365.73
2018-04-18T02:33:54.244Z,102367.94
2018-04-18T02:36:22.947Z,102370.02
2018-04-18T02:38:51.333Z,102367.45
2018-04-18T02:41:19.764Z,102371.31
2018-04-18T02:43:48.147Z,102372.55
2018-04-18T02:46:16.524Z,102370.81
2018-04-18T02:48:44.999Z,102374.68
2018-04-18T02:51:13.377Z,102370.36
2018-04-18T02:53:42.973Z,102372.53
2018-04-18T02:56:11.384Z,102378.55
2018-04-18T02:58:39.771Z,102372.08
2018-04-18T03:01:08.218Z,102373.39
2018-04-18T03:03:37.449Z,102380.72
2018-04-18T03:06:05.903Z,102380.63
2018-04-18T03:08:34.270Z,102382.80
2018-04-18T03:11:03.408Z,102386.66
2018-04-18T03:13:32.515Z,102385.36
2018-04-18T03:16:02.439Z,102391.39
2018-04-18T03:18:30.821Z,102381.41
2018-04-18T03:20:59.206Z,102390.05
2018-04-18T03:23:27.583Z,102391.33
2018-04-18T03:25:56.020Z,102394.77
2018-04-18T03:28:24.355Z,102398.21
2018-04-18T03:30:53.533Z,102400.33
2018-04-18T03:33:21.951Z,102402.05
2018-04-18T03:35:51.816Z,102405.47
2018-04-18T03:38:20.239Z,102408.52
2018-04-18T03:40:48.730Z,102412.26
2018-04-18T03:43:17.934Z,102413.13
2018-04-18T03:45:46.334Z,102418.74
2018-04-18T03:48:14.833Z,102420.84
2018-04-18T03:50:43.212Z,102422.12
2018-04-18T03:53:11.626Z,102421.62
2018-04-18T03:55:40.830Z,102427.24
2018-04-18T03:58:10.034Z,102425.52
2018-04-18T04:00:38.432Z,102431.08
2018-04-18T04:03:06.797Z,102436.20
2018-04-18T04:05:35.945Z,102434.44
2018-04-18T04:08:04.422Z,102437.89
2018-04-18T04:10:32.830Z,102440.01
2018-04-18T04:13:02.843Z,102443.00
2018-04-18T04:15:31.279Z,102442.98
2018-04-18T04:18:18.833Z,102448.96
2018-04-18T04:21:05.596Z,102455.00
2018-04-18T04:23:51.667Z,102454.97
2018-04-18T04:26:22.615Z,102458.43
2018-04-18T04:28:51.848Z,102457.99
2018-04-18T04:31:20.617Z,102457.59
2018-04-18T04:33:51.182Z,102464.03
2018-04-18T04:36:20.506Z,102462.70
2018-04-18T04:38:49.684Z,102469.63
2018-04-18T04:41:20.405Z,102468.33
2018-04-18T04:43:48.904Z,102474.34
2018-04-18T04:46:17.468Z,102479.93
2018-04-18T04:48:45.883Z,102479.50
2018-04-18T04:51:14.265Z,102485.90
2018-04-18T04:53:42.702Z,102485.05
2018-04-18T04:56:11.925Z,102491.09
2018-04-18T04:58:40.308Z,102492.38
2018-04-18T05:01:09.724Z,102492.80
2018-04-18T05:03:39.489Z,102496.73
2018-04-18T05:06:08.601Z,102500.63
2018-04-18T05:08:37.253Z,102505.44
2018-04-18T05:11:05.669Z,102510.63
2018-04-18T05:13:34.057Z,102507.14
2018-04-18T05:16:02.466Z,102508.02
2018-04-18T05:18:30.915Z,102513.67
2018-04-18T05:20:59.420Z,102518.45
2018-04-18T05:23:28.612Z,102523.67
2018-04-18T05:25:57.048Z,102524.08
2018-04-18T05:28:25.532Z,102530.61
2018-04-18T05:30:53.994Z,102536.27
2018-04-18T05:33:22.480Z,102538.03
2018-04-18T05:35:52.461Z,102548.03
2018-04-18T05:38:20.863Z,102545.95
2018-04-18T05:40:49.272Z,102554.20
2018-04-18T05:43:18.578Z,102555.55
2018-04-18T05:45:47.808Z,102553.02
2018-04-18T05:48:16.293Z,102560.37
2018-04-18T05:50:44.662Z,102566.92
2018-04-18T05:53:13.067Z,102568.72
2018-04-18T05:55:42.630Z,102566.18
2018-04-18T05:58:11.877Z,102574.44
2018-04-18T06:00:41.918Z,102571.12
2018-04-18T06:03:10.450Z,102570.30
2018-04-18T06:05:38.850Z,102574.68
2018-04-18T06:08:09.453Z,102579.92
2018-04-18T06:10:37.885Z,102575.19
2018-04-18T06:13:06.413Z,102583.01
2018-04-18T06:15:34.835Z,102577.91
2018-04-18T06:18:04.357Z,102581.42
2018-04-18T06:20:33.599Z,102582.38
2018-04-18T06:23:02.702Z,102587.61
2018-04-18T06:25:31.123Z,102592.42
2018-04-18T06:28:00.964Z,102592.50
2018-04-18T06:30:29.316Z,102594.72
2018-04-18T06:32:57.713Z,102597.34
2018-04-18T06:35:26.106Z,102594.38
2018-04-18T06:37:55.337Z,102591.83
2018-04-18T06:40:23.805Z,102596.21
2018-04-18T06:42:52.233Z,102595.83
2018-04-18T06:45:20.667Z,102597.17
2018-04-18T06:47:49.194Z,102599.36
2018-04-18T06:50:17.604Z,102604.59
2018-04-18T06:52:45.973Z,102598.98
2018-04-18T06:55:15.056Z,102606.83
2018-04-18T06:57:43.446Z,102608.59
2018-04-18T07:00:11.846Z,102614.70
2018-04-18T07:02:40.214Z,102619.92
2018-04-18T07:05:09.475Z,102614.76
2018-04-18T07:07:41.534Z,102618.66
2018-04-18T07:10:11.671Z,102618.27
2018-04-18T07:12:40.799Z,102620.00
2018-04-18T07:15:10.004Z,102621.75
2018-04-18T07:17:38.746Z,102624.78
2018-04-18T07:20:08.697Z,102625.25
2018-04-18T07:22:37.103Z,102624.38
2018-04-18T07:25:05.469Z,102630.88
2018-04-18T07:27:33.822Z,102626.58
2018-04-18T07:30:02.265Z,102631.33
2018-04-18T07:32:31.437Z,102642.59
2018-04-18T07:35:00.110Z,102640.87
2018-04-18T07:37:28.517Z,102639.59
2018-04-18T07:39:56.997Z,102638.76
2018-04-18T07:42:26.163Z,102639.19
2018-04-18T07:44:54.859Z,102646.13
2018-04-18T07:47:23.307Z,102645.24
2018-04-18T07:49:51.756Z,102647.39
2018-04-18T07:52:20.196Z,102645.65
2018-04-18T07:54:48.637Z,102647.39
2018-04-18T07:57:17.872Z,102652.16
2018-04-18T07:59:46.319Z,102648.25
2018-04-18T08:02:14.958Z,102649.08
2018-04-18T08:04:43.949Z,102651.23
2018-04-18T08:07:14.585Z,102652.97
2018-04-18T08:09:42.990Z,102655.09
2018-04-18T08:12:12.525Z,102652.45
2018-04-18T08:14:41.502Z,102664.61
2018-04-18T08:17:09.933Z,102664.14
2018-04-18T08:19:38.377Z,102663.29
2018-04-18T08:22:07.597Z,102667.17
2018-04-18T08:24:36.167Z,102667.16
2018-04-18T08:27:04.738Z,102666.28
2018-04-18T08:29:33.858Z,102664.95
2018-04-18T08:32:03.057Z,102667.47
2018-04-18T08:34:31.432Z,102663.09
2018-04-18T08:36:59.800Z,102663.48
2018-04-18T08:39:29.007Z,102662.61
2018-04-18T08:41:58.278Z,102662.16
2018-04-18T08:44:26.654Z,102666.48
2018-04-18T08:46:55.827Z,102669.93
2018-04-18T08:49:24.233Z,102666.41
2018-04-18T08:51:52.675Z,102670.67
2018-04-18T08:54:21.050Z,102667.13
2018-04-18T08:56:50.804Z,102666.13
2018-04-18T08:59:19.352Z,102668.25
2018-04-18T09:01:47.862Z,102674.64
2018-04-18T09:04:17.921Z,102671.53
2018-04-18T09:06:46.287Z,102665.41
2018-04-18T09:09:14.665Z,102668.41
2018-04-18T09:11:43.355Z,102665.80
2018-04-18T09:14:11.741Z,102671.45
2018-04-18T09:16:40.146Z,102672.25
2018-04-18T09:19:08.603Z,102669.17
2018-04-18T09:21:38.473Z,102669.97
2018-04-18T09:24:08.441Z,102665.17
2018-04-18T09:26:38.047Z,102676.41
2018-04-18T09:29:09.104Z,102675.94
2018-04-18T09:31:39.719Z,102663.70
2018-04-18T09:34:08.115Z,102666.66
2018-04-18T09:36:36.543Z,102661.35
2018-04-18T09:39:05.014Z,102659.88
2018-04-18T09:41:34.243Z,102656.72
2018-04-18T09:44:02.639Z,102660.98
2018-04-18T09:46:31.852Z,102656.19
2018-04-18T09:49:00.225Z,102653.09
2018-04-18T09:51:28.668Z,102652.61
2018-04-18T09:53:57.065Z,102653.03
2018-04-18T09:56:25.456Z,102647.72
2018-04-18T09:58:53.951Z,102644.61
2018-04-18T10:01:22.425Z,102644.08
2018-04-18T10:03:56.530Z,102645.79
2018-04-18T10:06:24.999Z,102642.58
2018-04-18T10:08:53.396Z,102632.44
2018-04-18T10:11:21.850Z,102636.25
2018-04-18T10:13:50.952Z,102635.00
2018-04-18T10:16:19.517Z,102635.76
2018-04-18T10:18:47.896Z,102638.69
2018-04-18T10:21:16.294Z,102638.88
2018-04-18T10:23:44.719Z,102640.01
2018-04-18T10:26:13.946Z,102642.06
2018-04-18T10:28:43.203Z,102647.64
2018-04-18T10:31:11.706Z,102638.89
2018-04-18T10:33:40.847Z,102650.60
2018-04-18T10:36:10.045Z,102645.30
2018-04-18T10:38:38.494Z,102640.83
2018-04-18T10:41:09.290Z,102641.05
2018-04-18T10:43:37.824Z,102635.68
2018-04-18T10:46:06.199Z,102637.78
2018-04-18T10:48:35.346Z,102647.37
2018-04-18T10:51:03.789Z,102647.73
2018-04-18T10:53:32.219Z,102645.98
2018-04-18T10:56:02.218Z,102640.63
2018-04-18T10:58:30.679Z,102635.80
2018-04-18T11:00:59.152Z,102643.14
2018-04-18T11:03:28.046Z,102641.70
2018-04-18T11:05:56.495Z,102639.73
2018-04-18T11:08:24.863Z,102644.34
2018-04-18T11:10:54.878Z,102637.20
2018-04-18T11:13:23.254Z,102639.28
2018-04-18T11:15:52.687Z,102638.77
2018-04-18T11:18:21.115Z,102635.11
2018-04-18T11:20:49.568Z,102634.48
2018-04-18T11:23:18.015Z,102637.84
2018-04-18T11:25:47.213Z,102636.87
2018-04-18T11:28:16.414Z,102633.72
2018-04-18T11:30:45.591Z,102634.89
2018-04-18T11:33:13.998Z,102632.67
2018-04-18T11:35:42.535Z,102631.64
2018-04-18T11:38:10.962Z,102638.36
2018-04-18T11:40:39.339Z,102632.55
2018-04-18T11:43:07.717Z,102627.42
2018-04-18T11:45:36.112Z,102623.69
2018-04-18T11:48:04.514Z,102620.75
2018-04-18T11:50:32.911Z,102619.70
2018-04-18T11:55:26.538Z,102619.66
2018-04-18T11:57:54.935Z,102616.39
2018-04-18T12:00:23.430Z,102614.56
2018-04-18T12:02:51.812Z,102612.70
2018-04-18T12:05:20.192Z,102610.42
2018-04-18T12:07:49.596Z,102608.77
2018-04-18T12:10:18.085Z,102610.11
2018-04-18T12:12:46.972Z,102609.69
2018-04-18T12:15:15.337Z,102609.44
2018-04-18T12:17:43.702Z,102604.65
2018-04-18T12:20:12.104Z,102607.00
2018-04-18T12:22:41.225Z,102605.06
2018-04-18T12:25:09.598Z,102606.53
2018-04-18T12:27:38.051Z,102599.91
2018-04-18T12:30:06.534Z,102605.96
2018-04-18T12:32:34.948Z,102606.41
2018-04-18T12:35:03.469Z,102600.55
2018-04-18T12:37:31.929Z,102610.20
2018-04-18T12:40:01.074Z,102601.52
2018-04-18T12:42:29.479Z,102607.65
2018-04-18T12:44:58.029Z,102599.58
2018-04-18T12:47:26.618Z,102606.27
2018-04-18T12:49:54.997Z,102605.53
2018-04-18T12:52:23.359Z,102600.28
2018-04-18T12:54:51.732Z,102597.72
2018-04-18T12:57:20.093Z,102596.25
2018-04-18T12:59:50.071Z,102599.45
2018-04-18T13:02:18.428Z,102596.25
2018-04-18T13:04:46.980Z,102595.22
2018-04-18T13:07:15.885Z,102590.97
2018-04-18T13:09:47.447Z,102579.55
2018-04-18T13:12:15.822Z,102588.35
2018-04-18T13:14:44.199Z,102583.93
2018-04-18T13:17:12.584Z,102575.79
2018-04-18T13:19:41.027Z,102578.65
2018-04-18T13:22:10.129Z,102577.77
2018-04-18T13:24:39.281Z,102573.06
2018-04-18T13:27:08.694Z,102572.87
2018-04-18T13:29:39.628Z,102575.72
2018-04-18T13:32:09.668Z,102574.67
2018-04-18T13:34:38.866Z,102571.50
2018-04-18T13:37:08.022Z,102562.83
2018-04-18T13:39:36.500Z,102564.04
2018-04-18T13:42:05.065Z,102557.48
2018-04-18T13:44:34.092Z,102558.33
2018-04-18T13:47:03.443Z,102555.25
2018-04-18T13:49:33.517Z,102551.25
2018-04-18T13:52:01.912Z,102559.34
2018-04-18T13:54:31.189Z,102557.74
2018-04-18T13:56:59.558Z,102554.52
2018-04-18T13:59:27.944Z,102550.71
2018-04-18T14:01:56.338Z,102551.73
2018-04-18T14:04:25.067Z,102549.45
2018-04-18T14:06:54.212Z,102549.20
2018-04-18T14:09:22.618Z,102544.63
2018-04-18T14:11:52.744Z,102551.38
2018-04-18T14:14:22.298Z,102549.78
2018-04-18T14:16:50.721Z,102548.92
2018-04-18T14:19:19.863Z,102546.94
2018-04-18T14:21:48.279Z,102541.05
2018-04-18T14:24:16.772Z,102540.86
2018-04-18T14:26:45.440Z,102538.95
2018-04-18T14:29:14.034Z,102529.51
2018-04-18T14:31:42.554Z,102532.11
2018-04-18T14:34:12.030Z,102528.89
2018-04-18T14:36:40.432Z,102530.30
2018-04-18T14:39:10.438Z,102531.22
2018-04-18T14:41:39.545Z,102519.97
2018-04-18T14:44:09.618Z,102528.82
2018-04-18T14:46:39.329Z,102529.70
2018-04-18T14:49:07.677Z,102526.66
2018-04-18T14:51:36.784Z,102525.80
2018-04-18T14:54:05.222Z,102521.26
2018-04-18T14:56:34.388Z,102520.52
2018-04-18T14:59:02.777Z,102521.49
2018-04-18T15:01:31.993Z,102520.79
2018-04-18T15:04:01.189Z,102515.58
2018-04-18T15:06:30.330Z,102513.38
2018-04-18T15:08:58.716Z,102515.53
2018-04-18T15:11:27.094Z,102517.05
2018-04-18T15:13:55.432Z,102515.20
2018-04-18T15:16:23.782Z,102517.02
2018-04-18T15:18:52.934Z,102513.17
2018-04-18T15:21:22.092Z,102509.62
2018-04-18T15:23:52.027Z,102508.02
2018-04-18T15:26:23.149Z,102501.85
2018-04-18T15:28:51.587Z,102505.63
2018-04-18T15:31:19.961Z,102504.52
2018-04-18T15:33:48.394Z,102506.14
2018-04-18T15:36:16.760Z,102498.69
2018-04-18T15:38:45.522Z,102497.66
2018-04-18T15:41:14.749Z,102489.77
2018-04-18T15:43:43.821Z,102488.30
2018-04-18T15:46:12.222Z,102491.75
2018-04-18T15:48:41.078Z,102489.14
2018-04-18T15:51:09.743Z,102485.34
2018-04-18T15:53:38.089Z,102486.64
2018-04-18T15:56:07.244Z,102488.72
2018-04-18T15:58:36.452Z,102484.13
2018-04-18T16:01:04.821Z,102482.61
2018-04-18T16:03:33.197Z,102488.34
2018-04-18T16:06:02.239Z,102486.58
2018-04-18T16:08:31.401Z,102483.68
2018-04-18T16:11:01.530Z,102487.27
2018-04-18T16:13:29.979Z,102478.30
2018-04-18T16:15:58.382Z,102479.23
2018-04-18T16:18:27.658Z,102481.53
2018-04-18T16:20:56.113Z,102483.95
2018-04-18T16:23:24.531Z,102479.91
2018-04-18T16:25:55.410Z,102477.89
2018-04-18T16:28:23.914Z,102480.28
2018-04-18T16:30:52.296Z,102477.30
2018-04-18T16:33:22.402Z,102479.34
2018-04-18T16:35:50.791Z,102484.25
2018-04-18T16:38:19.289Z,102477.14
2018-04-18T16:40:48.548Z,102476.97
2018-04-18T16:43:18.945Z,102476.84
2018-04-18T16:45:47.683Z,102481.13
2018-04-18T16:48:16.923Z,102478.47
2018-04-18T16:50:45.374Z,102472.41
2018-04-18T16:53:13.788Z,102474.96
2018-04-18T16:55:42.174Z,102477.67
2018-04-18T16:58:12.065Z,102472.45
2018-04-18T17:00:40.620Z,102468.05
2018-04-18T17:03:09.060Z,102469.93
2018-04-18T17:05:37.422Z,102471.20
2018-04-18T17:08:05.833Z,102469.30
2018-04-18T17:10:34.939Z,102473.59
2018-04-18T17:13:04.050Z,102474.30
2018-04-18T17:15:32.482Z,102477.63
2018-04-18T17:18:00.964Z,102470.95
2018-04-18T17:20:30.037Z,102473.27
2018-04-18T17:22:59.440Z,102471.58
2018-04-18T17:25:27.889Z,102477.16
2018-04-18T17:28:01.525Z,102471.60
2018-04-18T17:30:31.345Z,102479.27
2018-04-18T17:33:01.455Z,102482.06
2018-04-18T17:35:29.862Z,102480.41
2018-04-18T17:37:59.903Z,102480.59
2018-04-18T17:40:29.154Z,102483.72
2018-04-18T17:42:57.579Z,102484.27
2018-04-18T17:45:26.807Z,102488.31
2018-04-18T17:47:55.266Z,102481.88
2018-04-18T17:50:23.770Z,102487.31
2018-04-18T17:52:52.197Z,102485.75
2018-04-18T17:55:20.746Z,102487.61
2018-04-18T17:57:49.208Z,102479.94
2018-04-18T18:00:17.794Z,102485.73
2018-04-18T18:02:46.640Z,102485.52
2018-04-18T18:05:15.130Z,102487.06
2018-04-18T18:07:44.308Z,102488.53
2018-04-18T18:10:12.747Z,102493.61
2018-04-18T18:12:41.094Z,102496.85
2018-04-18T18:15:11.014Z,102492.68
2018-04-18T18:17:41.224Z,102494.16
2018-04-18T18:20:10.464Z,102495.69
2018-04-18T18:22:38.956Z,102495.16
2018-04-18T18:25:07.521Z,102495.83
2018-04-18T18:27:36.890Z,102495.62
2018-04-18T18:30:05.404Z,102497.45
2018-04-18T18:32:34.248Z,102500.66
2018-04-18T18:35:02.637Z,102504.79
2018-04-18T18:37:32.332Z,102504.48
2018-04-18T18:40:01.526Z,102511.13
2018-04-18T18:42:29.950Z,102510.34
2018-04-18T18:44:58.413Z,102517.91
2018-04-18T18:47:27.545Z,102515.05
2018-04-18T18:49:56.049Z,102517.36
2018-04-18T18:52:24.425Z,102524.97
2018-04-18T18:54:52.789Z,102526.78
2018-04-18T18:57:21.125Z,102534.31
2018-04-18T18:59:50.277Z,102533.09
2018-04-18T19:02:19.770Z,102537.54
2018-04-18T19:04:48.173Z,102538.55
2018-04-18T19:07:16.664Z,102535.11
2018-04-18T19:09:45.100Z,102536.50
2018-04-18T19:12:14.339Z,102538.80
2018-04-18T19:14:42.779Z,102537.58
2018-04-18T19:17:11.184Z,102540.74
2018-04-18T19:19:39.546Z,102540.44
2018-04-18T19:22:08.035Z,102538.77
2018-04-18T19:24:36.574Z,102536.23
2018-04-18T19:27:05.736Z,102535.98
2018-04-18T19:29:34.108Z,102539.11
2018-04-18T19:32:02.542Z,102539.22
2018-04-18T19:34:31.052Z,102537.98
2018-04-18T19:36:59.661Z,102539.89
2018-04-18T19:39:28.031Z,102538.63
2018-04-18T19:41:57.232Z,102531.83
2018-04-18T19:44:25.611Z,102542.02
2018-04-18T19:46:54.015Z,102540.28
2018-04-18T19:49:22.401Z,102539.89
2018-04-18T19:51:52.385Z,102540.84
2018-04-18T19:54:20.763Z,102542.19
2018-04-18T19:56:49.256Z,102541.33
2018-04-18T19:59:17.757Z,102551.39
2018-04-18T20:01:46.125Z,102548.39
2018-04-18T20:07:45.981Z,102553.83
2018-04-18T20:10:14.431Z,102547.88
2018-04-18T20:12:42.775Z,102550.11
2018-04-18T20:15:11.195Z,102555.86
2018-04-18T20:17:39.641Z,102554.66
2018-04-18T20:20:08.064Z,102558.62
2018-04-18T20:22:36.709Z,102559.54
2018-04-18T20:25:05.050Z,102561.75
2018-04-18T20:27:33.475Z,102560.05
2018-04-18T20:30:02.909Z,102560.53
2018-04-18T20:32:32.358Z,102562.32
2018-04-18T20:35:00.684Z,102564.10
2018-04-18T20:37:29.098Z,102558.92
2018-04-18T20:39:58.082Z,102560.73
2018-04-18T20:42:27.249Z,102562.55
2018-04-18T20:44:55.611Z,102570.49
2018-04-18T20:47:24.540Z,102569.23
2018-04-18T20:49:53.710Z,102567.09
2018-04-18T20:52:22.204Z,102570.56
2018-04-18T20:54:50.573Z,102563.64
2018-04-18T20:57:19.946Z,102569.77
2018-04-18T20:59:48.334Z,102564.19
2018-04-18T21:02:16.750Z,102566.33
2018-04-18T21:04:47.642Z,102563.78
2018-04-18T21:07:16.035Z,102570.33
2018-04-18T21:09:44.496Z,102569.49
2018-04-18T21:12:12.907Z,102564.74
2018-04-18T21:14:41.308Z,102558.69
2018-04-18T21:17:09.695Z,102567.41
2018-04-18T21:19:38.813Z,102571.38
2018-04-18T21:22:07.196Z,102573.55
2018-04-18T21:24:35.562Z,102571.87
2018-04-18T21:27:04.731Z,102577.07
2018-04-18T21:29:33.068Z,102575.82
2018-04-18T21:32:01.482Z,102575.46
2018-04-18T21:34:30.829Z,102578.47
2018-04-18T21:36:59.219Z,102574.62
2018-04-18T21:39:27.622Z,102574.21
2018-04-18T21:41:56.095Z,102577.23
2018-04-18T21:44:24.465Z,102576.86
2018-04-18T21:46:52.857Z,102571.23
2018-04-18T21:49:21.225Z,102568.22
2018-04-18T21:51:49.581Z,102574.72
2018-04-18T21:54:17.919Z,102568.69
2018-04-18T21:56:46.371Z,102573.02
2018-04-18T21:59:14.735Z,102569.58
2018-04-18T22:01:43.088Z,102578.70
2018-04-18T22:04:12.205Z,102578.27
2018-04-18T22:06:41.515Z,102570.03
2018-04-18T22:09:10.882Z,102570.47
2018-04-18T22:11:40.232Z,102572.22
2018-04-18T22:14:08.645Z,102571.78
2018-04-18T22:16:37.789Z,102577.46
2018-04-18T22:19:06.190Z,102578.31
2018-04-18T22:21:34.574Z,102582.27
2018-04-18T22:24:02.935Z,102580.52
2018-04-18T22:26:31.323Z,102582.71
2018-04-18T22:28:59.675Z,102581.44
2018-04-18T22:31:28.055Z,102575.81
2018-04-18T22:33:56.402Z,102581.47
2018-04-18T22:36:27.919Z,102582.78
2018-04-18T22:38:56.291Z,102588.42
2018-04-18T22:41:25.021Z,102583.23
2018-04-18T22:43:54.490Z,102591.47
2018-04-18T22:46:22.869Z,102591.05
2018-04-18T22:48:51.256Z,102588.45
2018-04-18T22:51:19.665Z,102594.94
2018-04-18T22:53:48.794Z,102596.68
2018-04-18T22:56:17.206Z,102593.22
2018-04-18T22:58:45.676Z,102590.18
2018-04-18T23:01:14.135Z,102590.20
2018-04-18T23:03:42.490Z,102591.08
2018-04-18T23:06:10.989Z,102596.72
2018-04-18T23:08:39.346Z,102594.98
2018-04-18T23:11:08.448Z,102591.94
2018-04-18T23:13:36.809Z,102593.23
2018-04-18T23:16:05.922Z,102585.87
2018-04-18T23:18:34.343Z,102581.53
2018-04-18T23:21:02.825Z,102588.03
2018-04-18T23:23:31.188Z,102584.58
2018-04-18T23:25:59.576Z,102581.11
2018-04-18T23:28:27.930Z,102574.61
2018-04-18T23:30:56.406Z,102581.09
2018-04-18T23:33:24.779Z,102581.52
2018-04-18T23:35:53.169Z,102587.16
2018-04-18T23:38:21.858Z,102580.66
2018-04-18T23:40:51.078Z,102577.19
2018-04-18T23:43:19.419Z,102576.77
2018-04-18T23:45:48.617Z,102571.98
2018-04-18T23:48:17.070Z,102575.03
2018-04-18T23:50:45.463Z,102567.66
2018-04-18T23:53:14.597Z,102568.98
2018-04-18T23:55:42.945Z,102570.27
2018-04-18T23:58:12.144Z,102570.27
